Meteo Giornale » Osservazioni meteo Stati Uniti (USA) » Flagstaff Pulliam
ore: 12:57 - Osservazioni Meteo Flagstaff Pulliam
Lat. 35° 8' N Lon. 111° 40' W Alt. 2137 metri s.l.m.
21 °C
Molto Nuvoloso
Temp. 24 Ore
8 °C
22 °C
Ovest/Sud-Ovest
16.7 Km/h
Dew point 8 °C
Umidità 43 %
Visibilità 10 Km
Il sole sorge alle ore 05:59
Il sole tramonta alle ore 18:53
| Data e Ora | Cielo e Fenomeni | T °C | DP °C | Um. % | Pres. hPa | Vis. km | Vento km/h | |
|---|---|---|---|---|---|---|---|---|
| Oggi h: 12:57 | Molto Nuvoloso | 21 | 8 | 43 | 1026 | 10 | O/SO 16.7 | |
| Oggi h: 11:57 | Sereno | 22 | 9 | 43 | 1027 | 10 | S/SO 18.5 | |
| Oggi h: 10:57 | Sereno | 22 | 9 | 43 | 1027 | 10 | S/SO 16.7 | |
| Oggi h: 09:57 | Sereno | 20 | 11 | 56 | 1027 | 10 | S 13 | |
| Oggi h: 08:57 | Sereno | 18 | 11 | 63 | 1027 | 10 | N 5.5 | |
| Oggi h: 07:57 | Sereno | 16 | 12 | 77 | 1027 | 10 | N 0 | |
| Oggi h: 06:57 | Sereno | 11 | 10 | 93 | 1027 | 10 | N 0 | |
| Oggi h: 05:57 | Sereno | 8 | 8 | 100 | 1026 | 10 | N 0 | |
| Oggi h: 04:57 | Sereno | 8 | 8 | 100 | 1026 | 10 | N 0 | |
| Oggi h: 03:57 | Sereno | 9 | 8 | 93 | 1026 | 10 | N 0 | |
| Oggi h: 02:57 | Sereno | 9 | 9 | 100 | 1026 | 10 | N 0 | |
| Oggi h: 01:57 | Sereno | 11 | 9 | 87 | 1026 | 10 | N 0 | |
| Oggi h: 00:57 | Sereno | 11 | 9 | 87 | 1026 | 10 | N 0 | |
| Ieri h: 23:57 | Sereno | 10 | 9 | 93 | 1026 | 10 | N 0 | |
| Ieri h: 22:57 | Sereno | 11 | 9 | 87 | 1026 | 10 | N 0 | |
| Ieri h: 21:57 | Sereno | 12 | 10 | 87 | 1026 | 10 | N 0 | |
| Ieri h: 20:57 | Sereno | 13 | 11 | 87 | 1026 | 10 | N 0 | |
| Ieri h: 18:57 | Sereno | 17 | 11 | 67 | 1025 | 10 | N 0 | |
| Ieri h: 17:57 | Sereno | 18 | 11 | 63 | 1025 | 10 | E 7.4 | |
| Ieri h: 16:57 | Nuvoloso | 19 | 11 | 59 | 1025 | 10 | E/NE 13 | |
| Ieri h: 15:57 | Sereno | 20 | 11 | 56 | 1025 | 10 | N 11.1 | |
| Ieri h: 14:34 | Coperto | 18 | 11 | 63 | 1027 | 10 | O 9.3 | |
| Ieri h: 14:24 | Coperto | 17 | 11 | 67 | 1027 | 10 | O/NO 9.3 | |
| Ieri h: 14:12 | Coperto | 18 | 12 | 67 | 1027 | 10 | S/SO 9.3 | |
| Ieri h: 13:57 | Coperto | 18 | 12 | 67 | 1027 | 10 | O/SO 13 | |



